Time;durP1;ratioP1;P1;durP2;ratioP2;P2;SDS_P1;SDS_P2;PMS_P1;PMS_P2;Temp;Humidity;BMP_temperature;BMP_pressure;BME280_temperature;BME280_humidity;BME280_pressure;Samples;Min_cycle;Max_cycle;Signal;HPM_P1;HPM_P2
2022/02/28 00:01:00;;;;;;;23.23;10.95;;;;;;;1.30;72.62;103832.03;5092056;28;20028;-49
2022/02/28 00:03:26;;;;;;;19.10;9.27;;;;;;;1.30;72.49;103821.47;5073990;28;20027;-50
2022/02/28 00:05:52;;;;;;;22.85;9.95;;;;;;;1.32;72.63;103824.00;5073934;28;20370;-50
2022/02/28 00:08:18;;;;;;;18.88;9.50;;;;;;;1.34;72.52;103822.06;5074174;28;20481;-49
2022/02/28 00:10:43;;;;;;;21.13;9.07;;;;;;;1.30;72.62;103829.41;5070296;28;20066;-48
2022/02/28 00:13:10;;;;;;;22.23;9.88;;;;;;;1.25;72.37;103835.94;5071595;28;20668;-49
2022/02/28 00:15:36;;;;;;;21.88;9.63;;;;;;;1.24;72.65;103831.63;5074819;28;20515;-51
2022/02/28 00:18:02;;;;;;;22.30;9.85;;;;;;;1.25;72.58;103830.66;5073460;28;20397;-50
2022/02/28 00:20:28;;;;;;;22.00;9.40;;;;;;;1.28;72.38;103828.66;5072072;28;21461;-48
2022/02/28 00:22:54;;;;;;;21.73;10.10;;;;;;;1.19;72.38;103831.97;5070482;28;20039;-48
2022/02/28 00:25:19;;;;;;;24.02;10.48;;;;;;;1.17;72.56;103821.50;5069619;28;20135;-49
2022/02/28 00:27:45;;;;;;;23.25;11.07;;;;;;;1.18;72.26;103828.47;5071863;28;20024;-50
2022/02/28 00:30:12;;;;;;;21.10;10.50;;;;;;;1.20;72.75;103823.06;5068073;28;20036;-49
2022/02/28 00:32:38;;;;;;;20.48;9.65;;;;;;;1.25;72.59;103825.38;5074089;23;20141;-47
2022/02/28 00:35:06;;;;;;;22.00;10.52;;;;;;;1.27;72.71;103829.63;5057118;28;20032;-48
2022/02/28 00:37:32;;;;;;;27.77;11.52;;;;;;;1.24;72.27;103821.03;5051511;28;20059;-47
2022/02/28 00:39:58;;;;;;;25.30;10.07;;;;;;;1.24;72.43;103827.19;5050142;28;20545;-47
2022/02/28 00:42:24;;;;;;;29.25;11.57;;;;;;;1.24;72.47;103828.97;5052988;28;20028;-47
2022/02/28 00:44:50;;;;;;;27.65;12.70;;;;;;;1.21;72.58;103830.03;5054367;28;20024;-47
2022/02/28 00:47:15;;;;;;;22.88;10.52;;;;;;;1.21;72.64;103830.88;5052808;28;20106;-48
2022/02/28 00:49:41;;;;;;;28.08;13.15;;;;;;;1.24;72.67;103829.81;5052854;28;20147;-47
2022/02/28 00:52:07;;;;;;;25.20;11.45;;;;;;;1.27;72.55;103834.06;5051691;28;21294;-47
2022/02/28 00:54:33;;;;;;;29.88;13.60;;;;;;;1.31;72.33;103831.06;5050813;28;20097;-47
2022/02/28 00:56:58;;;;;;;25.52;10.73;;;;;;;1.33;72.36;103823.03;5052893;28;20481;-47
2022/02/28 00:59:24;;;;;;;28.20;12.88;;;;;;;1.25;72.07;103823.56;5050348;28;20020;-48
2022/02/28 01:01:51;;;;;;;23.48;11.90;;;;;;;1.13;72.43;103814.75;5052171;28;20084;-48
2022/02/28 01:04:16;;;;;;;25.15;11.30;;;;;;;1.04;72.63;103812.78;5054541;28;20060;-49
2022/02/28 01:06:42;;;;;;;28.45;11.80;;;;;;;0.96;72.82;103819.56;5054504;28;20348;-47
2022/02/28 01:09:07;;;;;;;28.70;10.90;;;;;;;0.88;72.82;103812.19;5053157;28;20428;-50
2022/02/28 01:11:33;;;;;;;26.80;11.25;;;;;;;0.84;72.90;103823.91;5050776;28;20044;-49
2022/02/28 01:14:00;;;;;;;26.48;11.05;;;;;;;0.77;72.73;103806.84;5053689;28;20043;-49
2022/02/28 01:16:26;;;;;;;18.45;9.40;;;;;;;0.69;72.99;103804.72;5049737;28;20047;-50
2022/02/28 01:18:53;;;;;;;21.60;9.43;;;;;;;0.69;72.99;103799.44;5053896;28;20029;-50
2022/02/28 01:21:19;;;;;;;22.05;9.98;;;;;;;0.66;72.93;103802.31;5052323;28;20025;-50
2022/02/28 01:23:45;;;;;;;17.23;7.82;;;;;;;0.64;73.05;103804.22;5048285;28;20028;-50
2022/02/28 01:26:11;;;;;;;19.55;9.27;;;;;;;0.64;73.17;103804.22;5049480;28;20463;-50
2022/02/28 01:28:37;;;;;;;17.80;8.65;;;;;;;0.62;73.25;103802.63;5052261;28;20116;-50
2022/02/28 01:31:04;;;;;;;19.85;9.30;;;;;;;0.62;73.42;103810.56;5050662;28;20397;-50
2022/02/28 01:33:29;;;;;;;17.80;8.27;;;;;;;0.61;73.33;103817.63;5048379;28;20352;-50
2022/02/28 01:35:55;;;;;;;23.33;9.55;;;;;;;0.65;73.47;103810.34;5052228;28;20028;-50
2022/02/28 01:38:21;;;;;;;20.33;10.43;;;;;;;0.71;73.51;103810.72;5052684;28;20028;-50
2022/02/28 01:40:47;;;;;;;22.95;9.18;;;;;;;0.76;73.29;103811.28;5053930;28;20110;-50
2022/02/28 01:43:12;;;;;;;21.83;10.70;;;;;;;0.80;73.21;103809.25;5053755;28;20024;-50
2022/02/28 01:45:38;;;;;;;18.63;9.77;;;;;;;0.82;73.26;103812.63;5049877;28;20393;-50
2022/02/28 01:48:04;;;;;;;18.83;9.45;;;;;;;0.85;73.04;103807.97;5052908;28;20389;-50
2022/02/28 01:50:30;;;;;;;16.98;8.70;;;;;;;0.90;72.99;103805.03;5048173;28;20437;-50
2022/02/28 01:52:56;;;;;;;18.20;9.30;;;;;;;0.97;73.10;103805.41;5051926;28;20032;-50
2022/02/28 01:55:24;;;;;;;19.85;10.07;;;;;;;0.96;73.05;103807.22;5051574;28;20512;-50
2022/02/28 01:57:51;;;;;;;19.65;9.50;;;;;;;1.00;72.84;103818.38;5055979;28;20247;-47
2022/02/28 02:00:20;;;;;;;20.00;9.95;;;;;;;1.02;72.50;103805.91;5057443;28;20024;-49
2022/02/28 02:02:46;;;;;;;19.17;9.55;;;;;;;1.01;72.64;103806.88;5047690;28;20028;-48
2022/02/28 02:05:12;;;;;;;19.15;8.98;;;;;;;1.02;72.55;103809.41;5051381;28;20492;-50
2022/02/28 02:07:38;;;;;;;17.98;9.48;;;;;;;1.03;72.81;103813.72;5050244;28;20036;-48
2022/02/28 02:10:08;;;;;;;19.75;8.95;;;;;;;1.04;72.81;103811.94;5051223;28;20041;-47
2022/02/28 02:12:34;;;;;;;16.90;9.15;;;;;;;1.04;72.66;103807.50;5049711;28;20021;-47
2022/02/28 02:15:00;;;;;;;19.17;10.02;;;;;;;1.08;72.76;103802.84;5050154;28;20585;-47
2022/02/28 02:17:26;;;;;;;20.38;9.95;;;;;;;1.06;72.47;103804.75;5051235;28;20501;-47
2022/02/28 02:19:53;;;;;;;16.15;8.93;;;;;;;1.00;72.75;103799.91;5051150;28;20064;-48
2022/02/28 02:22:21;;;;;;;20.27;9.20;;;;;;;1.02;72.65;103795.34;5048472;28;20021;-47
2022/02/28 02:24:47;;;;;;;18.23;9.57;;;;;;;1.02;72.62;103798.00;5051384;28;20028;-48
2022/02/28 02:27:13;;;;;;;18.08;9.55;;;;;;;1.03;72.71;103799.69;5050574;28;20489;-48
2022/02/28 02:29:39;;;;;;;17.80;9.63;;;;;;;1.01;72.48;103796.31;5051809;28;20024;-47
2022/02/28 02:32:18;;;;;;;19.92;9.82;;;;;;;0.92;72.60;103789.06;5050174;28;20389;-48
2022/02/28 02:34:45;;;;;;;17.60;9.30;;;;;;;0.84;73.13;103790.44;5054407;28;20056;-47
2022/02/28 02:37:10;;;;;;;18.75;10.18;;;;;;;0.80;73.00;103781.06;5048706;28;20064;-48
2022/02/28 02:39:40;;;;;;;18.35;8.75;;;;;;;0.75;73.05;103775.28;5050441;28;20199;-47
2022/02/28 02:42:07;;;;;;;16.92;8.88;;;;;;;0.73;73.12;103769.28;5051414;28;20025;-47
2022/02/28 02:44:34;;;;;;;17.48;10.55;;;;;;;0.76;72.96;103770.84;5051547;28;20138;-49
2022/02/28 02:47:00;;;;;;;17.05;8.98;;;;;;;0.76;73.13;103769.06;5048959;28;20032;-48
2022/02/28 02:49:25;;;;;;;18.85;9.30;;;;;;;0.77;73.05;103768.09;5052600;28;20032;-47
2022/02/28 02:51:51;;;;;;;18.15;10.27;;;;;;;0.76;73.23;103763.78;5047751;28;20029;-48
2022/02/28 02:54:17;;;;;;;19.35;10.15;;;;;;;0.72;73.31;103764.94;5051873;28;20035;-48
2022/02/28 02:56:43;;;;;;;20.70;10.40;;;;;;;0.65;73.45;103752.28;5048408;28;20029;-47
2022/02/28 02:59:08;;;;;;;20.35;10.07;;;;;;;0.60;73.14;103753.47;5054833;28;20381;-48
2022/02/28 03:01:34;;;;;;;19.98;9.40;;;;;;;0.55;73.16;103750.31;5047335;28;20157;-47
2022/02/28 03:04:00;;;;;;;17.95;9.35;;;;;;;0.50;73.36;103744.50;5051837;28;20086;-47
2022/02/28 03:06:27;;;;;;;20.08;10.50;;;;;;;0.46;73.73;103748.31;5047531;28;20063;-47
2022/02/28 03:08:53;;;;;;;20.38;9.63;;;;;;;0.45;73.70;103740.50;5054115;28;20025;-47
2022/02/28 03:11:18;;;;;;;20.10;9.68;;;;;;;0.43;73.55;103737.97;5051569;28;20036;-47
2022/02/28 03:13:44;;;;;;;19.30;10.25;;;;;;;0.41;73.91;103746.97;5051667;28;20440;-47
2022/02/28 03:16:10;;;;;;;19.90;10.45;;;;;;;0.40;73.85;103755.81;5050534;28;20055;-49
2022/02/28 03:18:35;;;;;;;19.88;10.27;;;;;;;0.42;73.71;103760.03;5051794;28;20437;-48
2022/02/28 03:21:01;;;;;;;20.55;9.52;;;;;;;0.45;73.44;103754.53;5050375;28;20036;-48
2022/02/28 03:23:27;;;;;;;20.88;10.30;;;;;;;0.48;73.54;103745.56;5048537;28;20378;-48
2022/02/28 03:25:56;;;;;;;22.00;10.45;;;;;;;0.47;73.79;103749.16;5050876;28;20043;-48
2022/02/28 03:28:21;;;;;;;16.95;9.25;;;;;;;0.43;73.54;103750.31;5053361;28;20020;-48
2022/02/28 03:30:47;;;;;;;21.08;9.95;;;;;;;0.37;73.61;103748.97;5053858;28;20021;-49
2022/02/28 03:33:13;;;;;;;20.15;9.90;;;;;;;0.30;73.67;103747.69;5057135;28;20500;-48
2022/02/28 03:35:39;;;;;;;18.13;9.20;;;;;;;0.29;73.61;103757.41;5054035;28;20633;-47
2022/02/28 03:38:04;;;;;;;20.13;9.60;;;;;;;0.34;73.70;103753.59;5053890;28;20109;-47
2022/02/28 03:40:31;;;;;;;17.60;9.23;;;;;;;0.38;73.82;103749.81;5057328;28;20028;-49
2022/02/28 03:42:57;;;;;;;20.50;10.10;;;;;;;0.39;73.53;103751.50;5057166;28;20032;-49
2022/02/28 03:45:24;;;;;;;20.80;10.10;;;;;;;0.33;73.39;103742.19;5056056;28;20055;-49
2022/02/28 03:47:50;;;;;;;22.45;11.32;;;;;;;0.28;73.90;103745.16;5060143;28;20172;-51
2022/02/28 03:50:16;;;;;;;22.48;10.93;;;;;;;0.25;73.62;103739.28;5054406;28;20141;-49
2022/02/28 03:52:42;;;;;;;21.63;10.70;;;;;;;0.27;73.79;103748.75;5056397;28;20070;-48
2022/02/28 03:55:08;;;;;;;22.13;11.27;;;;;;;0.35;73.86;103752.63;5058635;28;20516;-48
2022/02/28 03:57:33;;;;;;;25.48;11.98;;;;;;;0.40;73.92;103743.47;5058287;28;20490;-49
2022/02/28 03:59:59;;;;;;;27.15;11.82;;;;;;;0.46;73.80;103736.91;5059474;28;20295;-48
2022/02/28 04:02:25;;;;;;;24.20;11.13;;;;;;;0.50;73.58;103744.50;5056726;28;20028;-48
2022/02/28 04:04:51;;;;;;;20.70;9.93;;;;;;;0.56;72.98;103743.25;5052652;28;20386;-49
2022/02/28 04:07:17;;;;;;;21.25;11.80;;;;;;;0.58;73.23;103744.81;5052895;28;20089;-49
2022/02/28 04:09:43;;;;;;;27.08;12.00;;;;;;;0.59;73.03;103740.38;5053814;28;20579;-49
2022/02/28 04:12:10;;;;;;;23.50;12.10;;;;;;;0.59;73.23;103741.22;5053830;28;20417;-48
2022/02/28 04:14:36;;;;;;;24.90;11.85;;;;;;;0.60;73.34;103737.63;5052045;28;20060;-48
2022/02/28 04:17:02;;;;;;;25.80;12.70;;;;;;;0.57;73.29;103748.41;5054134;28;20020;-48
2022/02/28 04:19:27;;;;;;;25.35;12.05;;;;;;;0.52;73.36;103742.59;5052952;28;20547;-49
2022/02/28 04:21:53;;;;;;;26.20;10.85;;;;;;;0.48;73.53;103733.22;5057702;28;20029;-49
2022/02/28 04:24:19;;;;;;;25.13;12.75;;;;;;;0.48;73.58;103732.38;5055051;28;20032;-49
2022/02/28 04:26:45;;;;;;;27.42;12.55;;;;;;;0.51;73.37;103743.53;5055481;28;20028;-49
2022/02/28 04:29:14;;;;;;;26.92;12.05;;;;;;;0.54;73.75;103739.88;5050640;28;20052;-49
2022/02/28 04:31:40;;;;;;;27.85;12.40;;;;;;;0.58;73.15;103743.97;5055365;28;20044;-49
2022/02/28 04:34:06;;;;;;;29.10;12.43;;;;;;;0.60;72.92;103734.16;5053975;28;20394;-49
2022/02/28 04:36:32;;;;;;;32.63;13.77;;;;;;;0.54;73.09;103731.97;5053873;28;20033;-49
2022/02/28 04:38:58;;;;;;;30.20;14.27;;;;;;;0.52;73.22;103736.47;5051510;28;20025;-48
2022/02/28 04:41:24;;;;;;;32.05;13.85;;;;;;;0.51;73.55;103730.34;5055256;28;20029;-48
2022/02/28 04:43:51;;;;;;;28.08;13.25;;;;;;;0.51;73.43;103733.00;5051906;28;20017;-49
2022/02/28 04:46:16;;;;;;;30.58;13.63;;;;;;;0.51;73.18;103734.78;5058482;28;20190;-49
2022/02/28 04:48:42;;;;;;;31.23;14.50;;;;;;;0.46;73.35;103735.13;5049142;28;20115;-48
2022/02/28 04:51:07;;;;;;;31.85;14.75;;;;;;;0.44;73.08;103731.75;5052222;28;20039;-49
2022/02/28 04:53:33;;;;;;;30.08;13.20;;;;;;;0.43;73.51;103726.59;5050344;28;20060;-49
2022/02/28 04:55:59;;;;;;;31.70;13.88;;;;;;;0.40;73.34;103725.00;5050506;28;20041;-49
2022/02/28 04:58:25;;;;;;;32.10;14.15;;;;;;;0.37;73.86;103727.88;5050519;28;20027;-50
2022/02/28 05:00:51;;;;;;;30.58;14.50;;;;;;;0.35;73.40;103734.19;5051572;28;20100;-48
2022/02/28 05:03:16;;;;;;;28.38;13.63;;;;;;;0.36;73.53;103738.50;5050589;28;20120;-51
2022/02/28 05:05:42;;;;;;;33.55;15.05;;;;;;;0.37;73.77;103722.59;5050642;28;20048;-48
2022/02/28 05:08:07;;;;;;;34.17;15.43;;;;;;;0.42;73.73;103727.53;5053174;28;20428;-50
2022/02/28 05:10:33;;;;;;;36.63;15.88;;;;;;;0.46;73.40;103721.09;5050657;28;20058;-50
2022/02/28 05:12:59;;;;;;;33.45;15.50;;;;;;;0.48;73.45;103719.19;5050993;28;20028;-49
2022/02/28 05:15:24;;;;;;;38.10;15.23;;;;;;;0.50;73.20;103719.91;5050736;28;20969;-49
2022/02/28 05:17:50;;;;;;;34.63;14.68;;;;;;;0.50;73.59;103714.63;5051081;28;20410;-49
2022/02/28 05:20:18;;;;;;;39.15;15.50;;;;;;;0.49;73.47;103718.22;5056138;28;20024;-48
2022/02/28 05:22:43;;;;;;;34.92;15.20;;;;;;;0.50;73.26;103723.38;5057773;28;20025;-48
2022/02/28 05:25:09;;;;;;;36.42;16.20;;;;;;;0.52;73.25;103734.69;5060211;28;20055;-50
2022/02/28 05:27:36;;;;;;;41.33;17.05;;;;;;;0.53;73.68;103740.78;5053467;28;20024;-48
2022/02/28 05:30:04;;;;;;;37.08;15.20;;;;;;;0.56;73.11;103732.69;5048982;28;20414;-48
2022/02/28 05:32:29;;;;;;;41.15;15.73;;;;;;;0.58;73.51;103738.69;5050057;28;20097;-48
2022/02/28 05:34:55;;;;;;;37.95;15.98;;;;;;;0.63;73.48;103744.47;5053397;28;20802;-49
2022/02/28 05:37:20;;;;;;;34.50;15.73;;;;;;;0.65;73.19;103739.09;5047426;28;20029;-48
2022/02/28 05:39:46;;;;;;;38.28;16.25;;;;;;;0.67;73.11;103743.31;5050974;28;20597;-50
2022/02/28 05:42:12;;;;;;;36.92;16.50;;;;;;;0.71;72.89;103742.13;5050060;28;20342;-49
2022/02/28 05:44:37;;;;;;;35.78;16.63;;;;;;;0.74;72.97;103749.84;5053676;28;20301;-49
2022/02/28 05:47:03;;;;;;;34.67;15.25;;;;;;;0.76;73.04;103750.56;5050254;28;20493;-50
2022/02/28 05:49:28;;;;;;;34.25;15.52;;;;;;;0.72;72.93;103749.13;5049516;28;20067;-49
2022/02/28 05:51:54;;;;;;;38.40;15.60;;;;;;;0.67;72.95;103756.50;5056275;28;20024;-49
2022/02/28 05:54:19;;;;;;;42.63;18.05;;;;;;;0.70;72.81;103753.63;5054293;28;20167;-48
2022/02/28 05:56:45;;;;;;;38.00;16.35;;;;;;;0.70;73.07;103756.28;5056484;28;20123;-50
2022/02/28 05:59:11;;;;;;;36.00;15.63;;;;;;;0.71;72.68;103755.31;5049929;28;20101;-49
2022/02/28 06:01:37;;;;;;;40.53;16.70;;;;;;;0.73;72.69;103757.88;5051350;28;20864;-49
2022/02/28 06:04:03;;;;;;;36.10;15.55;;;;;;;0.76;72.78;103769.06;5052686;28;20031;-51
2022/02/28 06:06:29;;;;;;;41.70;17.17;;;;;;;0.78;72.86;103764.50;5053376;28;20440;-49
2022/02/28 06:08:56;;;;;;;34.80;15.60;;;;;;;0.76;72.92;103763.78;5049348;28;20020;-51
2022/02/28 06:11:21;;;;;;;35.70;15.82;;;;;;;0.76;72.67;103771.69;5050318;28;20075;-48
2022/02/28 06:13:47;;;;;;;40.35;17.35;;;;;;;0.78;72.52;103775.06;5048020;28;20106;-49
2022/02/28 06:16:12;;;;;;;37.05;16.63;;;;;;;0.81;72.45;103777.47;5048390;28;20033;-49
2022/02/28 06:18:38;;;;;;;40.58;15.90;;;;;;;0.84;72.77;103777.25;5047363;28;20040;-48
2022/02/28 06:21:04;;;;;;;37.50;16.35;;;;;;;0.83;72.72;103788.75;5052766;28;20116;-50
2022/02/28 06:23:30;;;;;;;34.90;16.75;;;;;;;0.86;72.64;103785.06;5052648;28;20036;-48
2022/02/28 06:25:56;;;;;;;41.90;16.45;;;;;;;0.89;72.62;103790.09;5054264;28;20024;-50
2022/02/28 06:28:22;;;;;;;46.40;18.48;;;;;;;0.87;72.60;103792.00;5046835;28;20029;-49
2022/02/28 06:30:47;;;;;;;42.75;18.05;;;;;;;0.86;72.53;103788.53;5049325;28;20456;-50
2022/02/28 06:33:13;;;;;;;40.95;16.98;;;;;;;0.88;72.46;103794.53;5050914;28;20020;-50
2022/02/28 06:35:39;;;;;;;43.70;16.15;;;;;;;0.88;72.36;103789.25;5048042;28;20525;-49
2022/02/28 06:38:09;;;;;;;40.53;16.38;;;;;;;0.90;72.61;103800.59;5051924;28;20373;-49
2022/02/28 06:40:36;;;;;;;35.53;15.57;;;;;;;0.94;72.34;103810.91;5051224;28;20126;-48
2022/02/28 06:43:02;;;;;;;42.47;16.85;;;;;;;0.95;72.50;103810.81;5048161;28;20029;-50
2022/02/28 06:45:28;;;;;;;41.05;18.08;;;;;;;0.95;72.69;103813.44;5050310;28;20036;-49
2022/02/28 06:47:53;;;;;;;38.80;16.20;;;;;;;0.92;72.73;103807.56;5049313;28;20035;-49
2022/02/28 06:50:19;;;;;;;42.83;18.17;;;;;;;0.90;72.75;103810.31;5053689;28;20101;-49
2022/02/28 06:52:45;;;;;;;39.53;17.77;;;;;;;0.88;72.88;103813.03;5049702;28;20481;-50
2022/02/28 06:55:10;;;;;;;44.78;17.38;;;;;;;0.84;72.96;103816.84;5050227;28;20020;-50
2022/02/28 06:57:36;;;;;;;40.35;16.52;;;;;;;0.84;73.00;103821.28;5049741;28;20036;-49
2022/02/28 07:00:03;;;;;;;44.47;17.85;;;;;;;0.85;73.11;103815.03;5047191;28;20032;-49
2022/02/28 07:02:28;;;;;;;39.78;15.98;;;;;;;0.86;72.98;103807.00;5051592;28;20089;-50
2022/02/28 07:04:54;;;;;;;40.50;16.73;;;;;;;0.89;73.07;103809.44;5060635;28;20240;-48
2022/02/28 07:07:19;;;;;;;39.67;16.88;;;;;;;0.94;72.64;103808.28;5052466;28;20032;-48
2022/02/28 07:09:46;;;;;;;38.42;15.23;;;;;;;0.96;72.86;103807.22;5051801;28;20031;-49
2022/02/28 07:12:12;;;;;;;40.10;15.73;;;;;;;1.01;72.84;103813.00;5057264;28;20039;-49
2022/02/28 07:14:38;;;;;;;42.42;17.02;;;;;;;1.02;72.82;103805.91;5049782;28;20028;-49
2022/02/28 07:17:04;;;;;;;40.33;16.30;;;;;;;1.03;72.59;103794.41;5055543;28;20020;-50
2022/02/28 07:19:32;;;;;;;41.13;16.63;;;;;;;1.06;72.57;103810.03;5053597;28;20099;-49
2022/02/28 07:21:58;;;;;;;39.20;15.73;;;;;;;1.06;72.32;103810.03;5054901;28;20032;-50
2022/02/28 07:24:23;;;;;;;36.97;15.27;;;;;;;1.08;72.75;103813.41;5055735;28;20028;-49
